Time;durP1;ratioP1;P1;durP2;ratioP2;P2;SDS_P1;SDS_P2;PMS_P1;PMS_P2;Temp;Humidity;BMP_temperature;BMP_pressure;BME280_temperature;BME280_humidity;BME280_pressure;Samples;Min_cycle;Max_cycle;Signal;HPM_P1;HPM_P2
2021/11/28 00:00:23;;;;;;;13.13;8.67;;;4.80;96.10;;;;;;5102679;28;20019;-82
2021/11/28 00:02:49;;;;;;;15.77;11.77;;;4.90;96.10;;;;;;5117776;28;20024;-81
2021/11/28 00:05:16;;;;;;;13.47;10.03;;;4.90;96.30;;;;;;5083722;28;20031;-84
2021/11/28 00:08:07;;;;;;;14.43;9.73;;;5.00;96.40;;;;;;5116812;28;20024;-82
2021/11/28 00:10:53;;;;;;;14.03;9.57;;;5.10;96.30;;;;;;5103974;28;20034;-82
2021/11/28 00:13:32;;;;;;;13.90;9.30;;;5.10;96.00;;;;;;5116624;28;20107;-83
2021/11/28 00:16:00;;;;;;;13.47;9.80;;;5.10;95.70;;;;;;5101347;28;20038;-81
2021/11/28 00:18:26;;;;;;;12.07;9.20;;;5.10;95.90;;;;;;5117343;28;20529;-82
2021/11/28 00:20:53;;;;;;;12.83;9.10;;;5.10;95.70;;;;;;5117777;28;20020;-83
2021/11/28 00:23:19;;;;;;;12.13;9.63;;;5.10;95.50;;;;;;5116440;28;20070;-82
2021/11/28 00:25:45;;;;;;;16.53;9.53;;;5.00;95.40;;;;;;5117546;28;20084;-82
2021/11/28 00:28:13;;;;;;;12.63;9.10;;;5.10;95.70;;;;;;5116833;28;20096;-81
2021/11/28 00:30:40;;;;;;;9.97;8.10;;;5.10;96.00;;;;;;5115846;28;20044;-81
2021/11/28 00:33:06;;;;;;;12.17;9.10;;;5.10;95.50;;;;;;5116696;28;20058;-82
2021/11/28 00:35:32;;;;;;;13.30;9.33;;;5.10;95.50;;;;;;5116308;28;20024;-81
2021/11/28 00:37:59;;;;;;;12.63;9.23;;;5.20;95.70;;;;;;5116851;28;20022;-82
2021/11/28 00:40:24;;;;;;;12.93;9.50;;;5.10;95.40;;;;;;5099780;28;20028;-82
2021/11/28 00:42:50;;;;;;;11.67;8.87;;;5.20;95.70;;;;;;5100247;28;20028;-83
2021/11/28 00:45:16;;;;;;;10.60;8.80;;;5.20;95.70;;;;;;5098875;28;20059;-82
2021/11/28 00:47:42;;;;;;;10.87;9.00;;;5.20;95.40;;;;;;5117587;28;20039;-79
2021/11/28 00:52:35;;;;;;;13.63;9.23;;;5.10;95.80;;;;;;5116117;28;20493;-82
2021/11/28 00:55:02;;;;;;;12.03;8.60;;;5.20;96.20;;;;;;5116053;28;20016;-82
2021/11/28 00:57:28;;;;;;;14.03;8.83;;;5.20;95.50;;;;;;5115798;28;20028;-82
2021/11/28 00:59:55;;;;;;;11.07;8.47;;;5.10;95.40;;;;;;5117193;28;20389;-82
2021/11/28 01:02:21;;;;;;;11.67;9.07;;;5.10;95.20;;;;;;5099133;28;20425;-82
2021/11/28 01:04:47;;;;;;;13.53;8.97;;;5.10;95.60;;;;;;5117362;28;20038;-82
2021/11/28 01:07:13;;;;;;;12.90;9.10;;;5.20;95.80;;;;;;5118107;28;20091;-82
2021/11/28 01:09:39;;;;;;;15.07;8.93;;;5.20;96.00;;;;;;5117919;28;20035;-83
2021/11/28 01:12:06;;;;;;;12.57;9.33;;;5.20;95.70;;;;;;5116477;28;20023;-82
2021/11/28 01:14:34;;;;;;;13.40;8.70;;;5.10;95.60;;;;;;5116223;28;20051;-83
2021/11/28 01:17:00;;;;;;;13.20;8.73;;;5.10;95.60;;;;;;5117490;28;20048;-83
2021/11/28 01:19:26;;;;;;;13.37;9.37;;;5.00;95.70;;;;;;5099684;28;20032;-82
2021/11/28 01:22:12;;;;;;;15.33;9.30;;;5.00;95.70;;;;;;5117014;28;20532;-82
2021/11/28 01:24:39;;;;;;;13.70;9.90;;;5.00;95.90;;;;;;5118232;28;20030;-81
2021/11/28 01:27:10;;;;;;;13.73;8.63;;;5.10;96.20;;;;;;5116721;28;20083;-83
2021/11/28 01:29:36;;;;;;;13.63;8.40;;;5.10;96.30;;;;;;5117251;28;20048;-82
2021/11/28 01:32:02;;;;;;;13.27;9.47;;;5.30;96.50;;;;;;5099057;28;20035;-82
2021/11/28 01:34:31;;;;;;;12.27;8.47;;;5.30;96.50;;;;;;5098965;28;20031;-82
2021/11/28 01:36:58;;;;;;;12.50;8.90;;;5.40;96.60;;;;;;5116285;28;20031;-81
2021/11/28 01:39:24;;;;;;;11.57;9.20;;;5.40;96.70;;;;;;5117805;28;20043;-83
2021/11/28 01:41:51;;;;;;;13.13;9.00;;;5.50;96.80;;;;;;5100171;28;20051;-83
2021/11/28 01:44:17;;;;;;;14.27;8.70;;;5.50;96.70;;;;;;5117597;28;20024;-81
2021/11/28 01:46:43;;;;;;;12.40;8.47;;;5.60;96.70;;;;;;5099391;28;20510;-82
2021/11/28 01:49:10;;;;;;;12.23;8.17;;;5.60;96.60;;;;;;5117783;28;20043;-82
2021/11/28 01:51:39;;;;;;;11.77;8.77;;;5.60;96.70;;;;;;5117681;28;20035;-82
2021/11/28 01:54:12;;;;;;;11.30;8.17;;;5.60;96.70;;;;;;5115675;28;20023;-83
2021/11/28 01:56:42;;;;;;;12.77;8.10;;;5.60;96.70;;;;;;5119100;28;20027;-82
2021/11/28 01:59:09;;;;;;;12.87;7.90;;;5.60;96.80;;;;;;5120138;28;20023;-83
2021/11/28 02:01:37;;;;;;;11.83;8.20;;;5.60;96.50;;;;;;5119600;28;20486;-83
2021/11/28 02:04:14;;;;;;;12.40;7.87;;;5.50;96.50;;;;;;5119249;28;20023;-83
2021/11/28 02:06:41;;;;;;;10.37;7.97;;;5.50;96.40;;;;;;5121395;28;20115;-82
2021/11/28 02:09:07;;;;;;;12.03;8.13;;;5.30;96.20;;;;;;5119009;28;20080;-82
2021/11/28 02:11:33;;;;;;;14.70;8.60;;;5.20;96.60;;;;;;5120330;28;20103;-82
2021/11/28 02:13:58;;;;;;;10.37;7.93;;;5.30;97.10;;;;;;5119705;28;20461;-81
2021/11/28 02:16:24;;;;;;;14.60;8.87;;;5.40;97.20;;;;;;5102796;28;20028;-82
2021/11/28 02:18:50;;;;;;;11.47;8.50;;;5.40;97.20;;;;;;5120575;28;20134;-80
2021/11/28 02:21:17;;;;;;;10.50;7.67;;;5.30;96.90;;;;;;5124991;28;20435;-82
2021/11/28 02:23:42;;;;;;;10.77;7.97;;;5.40;97.40;;;;;;5121224;28;20456;-82
2021/11/28 02:26:14;;;;;;;13.73;8.20;;;5.50;97.30;;;;;;5119409;28;20035;-81
2021/11/28 02:28:41;;;;;;;10.57;7.93;;;5.40;97.30;;;;;;5119833;28;20126;-82
2021/11/28 02:31:07;;;;;;;11.37;7.67;;;5.50;97.60;;;;;;5118068;28;20130;-82
2021/11/28 02:33:33;;;;;;;9.53;7.50;;;5.60;97.70;;;;;;5119002;28;20074;-83
2021/11/28 02:35:59;;;;;;;12.57;7.83;;;5.70;97.70;;;;;;5119044;28;20027;-83
2021/11/28 02:38:25;;;;;;;10.40;7.67;;;5.70;97.50;;;;;;5119218;28;20036;-82
2021/11/28 02:40:51;;;;;;;12.23;8.13;;;5.70;97.60;;;;;;5118350;28;20027;-81
2021/11/28 02:43:16;;;;;;;9.77;7.40;;;5.70;97.70;;;;;;5102132;28;20032;-81
2021/11/28 02:45:43;;;;;;;9.73;7.63;;;5.70;97.40;;;;;;5118959;28;20069;-82
2021/11/28 02:48:12;;;;;;;8.07;6.90;;;5.80;97.50;;;;;;5119661;28;20015;-82
2021/11/28 02:50:39;;;;;;;11.33;7.60;;;5.80;97.60;;;;;;5118182;28;20042;-82
2021/11/28 02:53:08;;;;;;;12.80;7.90;;;5.80;97.40;;;;;;5117247;28;20065;-82
2021/11/28 02:55:47;;;;;;;8.57;6.80;;;5.80;97.30;;;;;;5116709;28;20047;-82
2021/11/28 02:58:15;;;;;;;9.30;7.80;;;5.70;97.30;;;;;;5117071;28;20027;-82
2021/11/28 03:00:45;;;;;;;11.47;8.23;;;5.70;97.20;;;;;;5118281;28;20527;-82
2021/11/28 03:03:11;;;;;;;11.43;8.37;;;5.70;97.50;;;;;;5116365;28;20027;-82
2021/11/28 03:05:37;;;;;;;9.27;7.53;;;5.80;97.70;;;;;;5118929;28;20158;-82
2021/11/28 03:08:03;;;;;;;11.57;8.50;;;5.80;97.70;;;;;;5117297;28;20023;-82
2021/11/28 03:10:39;;;;;;;11.37;8.33;;;5.80;97.50;;;;;;5100374;28;20453;-83
2021/11/28 03:13:15;;;;;;;11.47;8.87;;;5.80;97.40;;;;;;5120681;28;20027;-82
2021/11/28 03:15:41;;;;;;;11.30;8.80;;;5.70;96.90;;;;;;5120659;28;20027;-82
2021/11/28 03:18:13;;;;;;;11.30;8.70;;;5.70;97.40;;;;;;5118765;28;20467;-83
2021/11/28 03:20:39;;;;;;;12.00;8.63;;;5.80;97.70;;;;;;5119149;28;20468;-82
2021/11/28 03:23:08;;;;;;;13.93;8.93;;;5.80;97.60;;;;;;5118949;28;20073;-82
2021/11/28 03:25:34;;;;;;;12.27;8.50;;;5.90;97.60;;;;;;5119335;28;20023;-82
2021/11/28 03:28:00;;;;;;;11.10;8.13;;;6.00;97.70;;;;;;5116822;28;20028;-81
2021/11/28 03:30:26;;;;;;;10.97;7.73;;;6.00;97.50;;;;;;5098596;28;20051;-83
2021/11/28 03:32:51;;;;;;;12.40;8.93;;;6.00;97.30;;;;;;5098155;28;20031;-82
2021/11/28 03:35:18;;;;;;;11.23;8.57;;;6.00;97.20;;;;;;5099083;28;20099;-82
2021/11/28 03:37:44;;;;;;;11.70;8.93;;;6.00;97.20;;;;;;5117878;28;20024;-82
2021/11/28 03:40:11;;;;;;;12.27;9.70;;;6.00;97.20;;;;;;5117400;28;20036;-82
2021/11/28 03:42:37;;;;;;;13.27;10.17;;;6.00;97.30;;;;;;5117405;28;20073;-82
2021/11/28 03:45:09;;;;;;;13.87;10.03;;;6.10;97.40;;;;;;5117157;28;20028;-82
2021/11/28 03:47:35;;;;;;;15.93;11.13;;;6.10;97.30;;;;;;5117400;28;20030;-82
2021/11/28 03:50:04;;;;;;;14.37;11.20;;;6.00;97.10;;;;;;5117316;28;20028;-81
2021/11/28 03:52:31;;;;;;;13.23;10.10;;;6.10;97.20;;;;;;5117192;28;20038;-82
2021/11/28 03:54:57;;;;;;;14.40;11.10;;;6.10;97.20;;;;;;5101168;28;20051;-82
2021/11/28 03:57:23;;;;;;;15.33;11.20;;;6.00;97.10;;;;;;5100350;28;20031;-82
2021/11/28 03:59:49;;;;;;;14.10;11.63;;;6.10;97.30;;;;;;5116920;28;20031;-81
2021/11/28 04:02:15;;;;;;;14.07;12.53;;;6.10;97.20;;;;;;5099604;28;20038;-83
2021/11/28 04:04:41;;;;;;;14.93;12.67;;;6.00;97.20;;;;;;5117997;28;20034;-82
2021/11/28 04:07:07;;;;;;;14.37;12.87;;;6.10;97.40;;;;;;5115687;28;20028;-83
2021/11/28 04:09:33;;;;;;;17.00;13.80;;;6.10;97.40;;;;;;5117106;28;20207;-82
2021/11/28 04:12:00;;;;;;;16.50;13.67;;;6.10;97.30;;;;;;5117501;28;20019;-82
2021/11/28 04:14:26;;;;;;;13.70;11.53;;;6.10;97.10;;;;;;5121103;28;20024;-83
2021/11/28 04:16:52;;;;;;;14.17;12.10;;;6.10;97.20;;;;;;5103367;28;20027;-83
2021/11/28 04:19:17;;;;;;;16.77;12.60;;;6.10;97.20;;;;;;5100132;28;20032;-83
2021/11/28 04:21:44;;;;;;;13.93;11.80;;;6.20;97.30;;;;;;5117493;28;20138;-83
2021/11/28 04:24:14;;;;;;;17.57;12.93;;;6.10;97.20;;;;;;5115719;28;20035;-81
2021/11/28 04:26:41;;;;;;;17.70;13.90;;;6.10;97.10;;;;;;5116183;28;20019;-82
2021/11/28 04:29:07;;;;;;;16.53;13.27;;;6.10;97.00;;;;;;5102354;28;20039;-82
2021/11/28 04:31:33;;;;;;;21.20;13.07;;;6.00;97.00;;;;;;5124752;28;20054;-82
2021/11/28 04:33:58;;;;;;;19.80;14.63;;;6.00;97.20;;;;;;5123178;28;20034;-83
2021/11/28 04:36:24;;;;;;;19.23;13.80;;;6.00;97.00;;;;;;5100134;28;20407;-83
2021/11/28 04:38:50;;;;;;;15.83;13.33;;;5.90;97.00;;;;;;5100095;28;20042;-82
2021/11/28 04:41:16;;;;;;;19.93;13.37;;;5.90;97.40;;;;;;5116478;28;20034;-83
2021/11/28 04:43:41;;;;;;;18.13;14.07;;;6.00;97.60;;;;;;5100065;28;20027;-84
2021/11/28 04:46:07;;;;;;;19.87;14.33;;;5.90;97.10;;;;;;5116562;28;20023;-83
2021/11/28 04:48:32;;;;;;;19.00;14.70;;;5.80;96.80;;;;;;5099362;28;20043;-83
2021/11/28 04:50:58;;;;;;;21.97;15.93;;;5.60;96.70;;;;;;5116310;28;20031;-82
2021/11/28 04:53:24;;;;;;;18.53;14.87;;;5.50;96.90;;;;;;5116135;28;20039;-84
2021/11/28 04:55:50;;;;;;;20.50;15.13;;;5.40;97.30;;;;;;5116074;28;20470;-84
2021/11/28 04:58:15;;;;;;;20.50;14.43;;;5.50;97.70;;;;;;5116950;28;20061;-83
2021/11/28 05:00:41;;;;;;;19.03;14.97;;;5.70;98.10;;;;;;5082782;28;20024;-84
2021/11/28 05:03:07;;;;;;;19.70;15.37;;;5.80;98.00;;;;;;5116020;28;20028;-81
2021/11/28 05:05:33;;;;;;;18.80;14.43;;;5.80;97.80;;;;;;5100257;28;20028;-83
2021/11/28 05:07:59;;;;;;;17.80;14.53;;;5.80;97.50;;;;;;5116926;28;20114;-83
2021/11/28 05:10:26;;;;;;;17.33;14.60;;;5.80;97.40;;;;;;5118082;28;20092;-83
2021/11/28 05:12:53;;;;;;;20.17;15.00;;;5.80;97.70;;;;;;5100235;28;20026;-83
2021/11/28 05:15:19;;;;;;;22.27;15.33;;;5.80;97.90;;;;;;5117369;28;20074;-83
2021/11/28 05:17:45;;;;;;;20.43;14.80;;;5.90;97.90;;;;;;5117677;28;20110;-82
2021/11/28 05:20:12;;;;;;;19.87;15.97;;;5.90;97.80;;;;;;5116977;28;20032;-82
2021/11/28 05:22:38;;;;;;;20.10;15.97;;;5.80;97.10;;;;;;5082468;28;20028;-83
2021/11/28 05:25:06;;;;;;;23.30;16.70;;;5.50;96.80;;;;;;5099029;28;20031;-81
2021/11/28 05:27:32;;;;;;;22.87;16.30;;;5.20;96.90;;;;;;5116601;28;20028;-83
2021/11/28 05:29:58;;;;;;;22.27;17.03;;;5.00;97.40;;;;;;5116849;28;20135;-83
2021/11/28 05:32:24;;;;;;;22.00;16.37;;;5.10;98.20;;;;;;5103351;28;20031;-82
2021/11/28 05:34:50;;;;;;;20.40;16.47;;;5.20;98.40;;;;;;5120275;28;20114;-82
2021/11/28 05:37:17;;;;;;;21.97;16.60;;;5.40;98.40;;;;;;5120972;28;20059;-83
2021/11/28 05:39:43;;;;;;;21.23;15.90;;;5.30;98.00;;;;;;5120053;28;20032;-84
2021/11/28 05:42:09;;;;;;;22.43;16.07;;;5.40;98.30;;;;;;5119984;28;20031;-82
2021/11/28 05:44:35;;;;;;;17.87;14.97;;;5.60;98.60;;;;;;5120954;28;20028;-83
2021/11/28 05:47:01;;;;;;;18.83;15.00;;;5.80;98.60;;;;;;5102440;28;20050;-82
2021/11/28 05:49:27;;;;;;;19.87;15.57;;;5.80;98.30;;;;;;5101520;28;20391;-82
2021/11/28 05:51:52;;;;;;;19.63;16.30;;;5.80;98.10;;;;;;5118385;28;20027;-83
2021/11/28 05:54:18;;;;;;;17.90;14.87;;;5.80;97.90;;;;;;5100641;28;20027;-84
2021/11/28 05:56:44;;;;;;;19.60;15.60;;;5.80;98.10;;;;;;5084111;28;20034;-83
2021/11/28 05:59:10;;;;;;;20.33;16.70;;;5.90;98.20;;;;;;5117942;28;20483;-83
2021/11/28 06:01:36;;;;;;;18.97;16.07;;;6.00;98.10;;;;;;5118282;28;20031;-84
2021/11/28 06:04:03;;;;;;;22.67;16.77;;;5.90;97.80;;;;;;5118317;28;20023;-84
2021/11/28 06:06:29;;;;;;;20.07;15.27;;;5.70;97.20;;;;;;5117892;28;20031;-83
2021/11/28 06:08:55;;;;;;;20.80;15.53;;;5.60;97.40;;;;;;5101257;28;20463;-83
2021/11/28 06:11:21;;;;;;;23.73;16.77;;;5.50;97.40;;;;;;5118136;28;20056;-83
2021/11/28 06:13:46;;;;;;;21.73;16.90;;;5.50;97.30;;;;;;5118101;28;20073;-81
2021/11/28 06:16:12;;;;;;;23.97;17.33;;;5.40;97.50;;;;;;5118575;28;20462;-83
2021/11/28 06:18:38;;;;;;;23.90;17.80;;;5.30;97.40;;;;;;5119182;28;20391;-84
2021/11/28 06:21:04;;;;;;;25.73;18.27;;;5.10;97.30;;;;;;5118667;28;20467;-82
2021/11/28 06:23:30;;;;;;;20.47;16.70;;;5.00;97.30;;;;;;5102170;28;20024;-83
2021/11/28 06:25:56;;;;;;;23.17;17.73;;;4.90;97.60;;;;;;5118990;28;20020;-83
2021/11/28 06:28:22;;;;;;;22.33;17.43;;;4.90;98.00;;;;;;5100917;28;20052;-82
2021/11/28 06:30:48;;;;;;;24.00;17.70;;;5.00;98.40;;;;;;5117825;28;20044;-83
2021/11/28 06:33:14;;;;;;;24.53;17.10;;;5.10;98.30;;;;;;5100404;28;20108;-82
2021/11/28 06:35:40;;;;;;;22.53;16.93;;;5.20;98.60;;;;;;5117759;28;20497;-81
2021/11/28 06:38:06;;;;;;;24.83;16.73;;;5.20;98.50;;;;;;5102052;28;20027;-83
2021/11/28 06:40:32;;;;;;;25.37;17.70;;;5.20;98.50;;;;;;5119719;28;20027;-84
2021/11/28 06:42:57;;;;;;;24.47;17.93;;;5.30;98.80;;;;;;5117028;28;20371;-81
2021/11/28 06:45:23;;;;;;;23.43;17.60;;;5.40;98.60;;;;;;5101411;28;20035;-84
2021/11/28 06:47:48;;;;;;;23.47;16.63;;;5.30;98.20;;;;;;5084844;28;20020;-83
2021/11/28 06:50:15;;;;;;;22.20;16.67;;;5.20;98.20;;;;;;5084582;28;20478;-83
2021/11/28 06:52:41;;;;;;;21.40;17.20;;;5.30;98.70;;;;;;5101483;28;20027;-84
2021/11/28 06:55:07;;;;;;;23.30;17.57;;;5.40;98.40;;;;;;5099519;28;20028;-84
2021/11/28 06:57:33;;;;;;;21.00;16.10;;;5.40;98.40;;;;;;5101168;28;20072;-83
2021/11/28 06:59:59;;;;;;;22.47;16.93;;;5.50;98.70;;;;;;5118063;28;20035;-82
2021/11/28 07:02:24;;;;;;;20.47;15.87;;;5.60;98.60;;;;;;5101986;28;20042;-83
2021/11/28 07:04:50;;;;;;;27.10;17.00;;;5.60;98.50;;;;;;5117554;28;20020;-82
2021/11/28 07:07:16;;;;;;;23.47;16.10;;;5.70;98.40;;;;;;5117452;28;20052;-82
2021/11/28 07:09:42;;;;;;;21.20;17.00;;;5.80;98.30;;;;;;5118082;28;20035;-82
2021/11/28 07:12:08;;;;;;;21.87;17.23;;;5.80;98.10;;;;;;5101308;28;20032;-81
2021/11/28 07:14:33;;;;;;;22.90;17.20;;;5.80;97.80;;;;;;5102073;28;20073;-81
2021/11/28 07:16:59;;;;;;;24.43;16.63;;;5.60;97.40;;;;;;5102588;28;20028;-81
2021/11/28 07:19:25;;;;;;;20.80;16.63;;;5.60;97.80;;;;;;5119369;28;20036;-80
2021/11/28 07:21:50;;;;;;;19.40;16.23;;;5.60;98.00;;;;;;5101898;28;20116;-81
2021/11/28 07:24:16;;;;;;;19.73;16.53;;;5.60;97.90;;;;;;5101652;28;20020;-83
2021/11/28 07:26:42;;;;;;;24.10;17.37;;;5.50;97.80;;;;;;5120391;28;20027;-82
2021/11/28 07:29:08;;;;;;;23.67;17.30;;;5.40;97.60;;;;;;5120023;28;20400;-81
2021/11/28 07:31:34;;;;;;;23.57;17.63;;;5.40;98.00;;;;;;5118711;28;20081;-81
2021/11/28 07:34:00;;;;;;;25.80;17.47;;;5.50;98.00;;;;;;5119137;28;20034;-83
2021/11/28 07:36:26;;;;;;;22.60;17.10;;;5.40;98.00;;;;;;5119385;28;20027;-84
2021/11/28 07:38:51;;;;;;;22.53;16.67;;;5.40;98.10;;;;;;5104057;28;20023;-82
2021/11/28 07:41:24;;;;;;;23.37;16.70;;;5.40;98.20;;;;;;5119537;28;20027;-81
2021/11/28 07:43:50;;;;;;;22.57;16.80;;;5.60;98.90;;;;;;5119451;28;20038;-83
2021/11/28 07:46:16;;;;;;;23.70;16.80;;;5.80;98.60;;;;;;5102464;28;20027;-80
2021/11/28 07:48:42;;;;;;;23.50;17.53;;;5.80;98.20;;;;;;5119675;28;20105;-81
2021/11/28 07:51:08;;;;;;;23.40;18.60;;;5.80;98.30;;;;;;5118291;28;20512;-81
2021/11/28 07:53:34;;;;;;;22.23;17.50;;;5.80;98.10;;;;;;5101401;28;20391;-81
2021/11/28 07:55:59;;;;;;;22.03;17.23;;;5.80;98.00;;;;;;5117984;28;20068;-81
2021/11/28 07:58:25;;;;;;;22.50;16.67;;;5.80;98.10;;;;;;5100579;28;20101;-80
2021/11/28 08:00:51;;;;;;;22.97;17.50;;;5.90;98.20;;;;;;5122010;28;20024;-81
2021/11/28 08:03:17;;;;;;;21.93;17.80;;;6.00;98.20;;;;;;5101513;28;20028;-81
2021/11/28 08:05:42;;;;;;;22.20;16.87;;;6.00;97.90;;;;;;5101120;28;20031;-82
2021/11/28 08:08:10;;;;;;;22.57;16.83;;;6.10;98.00;;;;;;5101118;28;20051;-81
2021/11/28 08:10:36;;;;;;;21.03;17.30;;;6.10;98.00;;;;;;5100722;28;20047;-80
2021/11/28 08:13:01;;;;;;;21.33;16.30;;;6.20;97.90;;;;;;5117786;28;20032;-81
2021/11/28 08:15:27;;;;;;;21.07;17.37;;;6.10;97.90;;;;;;5100530;28;20051;-78
2021/11/28 08:17:53;;;;;;;20.93;17.47;;;6.20;98.10;;;;;;5118150;28;20028;-80
2021/11/28 08:20:22;;;;;;;23.23;17.10;;;6.30;98.00;;;;;;5118594;28;20023;-81
2021/11/28 08:22:48;;;;;;;20.93;17.17;;;6.30;98.00;;;;;;5119898;28;20016;-83
2021/11/28 08:25:15;;;;;;;23.07;17.87;;;6.40;97.80;;;;;;5119074;28;20043;-83
2021/11/28 08:27:42;;;;;;;22.70;16.90;;;6.40;97.50;;;;;;5120253;28;20023;-81
2021/11/28 08:30:15;;;;;;;22.60;17.67;;;6.30;97.20;;;;;;5120561;28;20055;-81
2021/11/28 08:32:42;;;;;;;23.73;17.80;;;6.40;97.70;;;;;;5103417;28;20028;-83
2021/11/28 08:35:10;;;;;;;23.97;17.97;;;6.40;97.60;;;;;;5119243;28;20060;-82
2021/11/28 08:37:36;;;;;;;26.87;18.47;;;6.50;97.50;;;;;;5118538;28;20092;-80
2021/11/28 08:40:05;;;;;;;26.43;18.37;;;6.50;97.40;;;;;;5118664;28;20031;-82
2021/11/28 08:42:33;;;;;;;29.00;18.60;;;6.60;97.50;;;;;;5119441;28;20036;-80
2021/11/28 08:45:04;;;;;;;25.17;17.87;;;6.70;97.50;;;;;;5120613;28;20036;-81
2021/11/28 08:47:30;;;;;;;25.33;17.73;;;6.80;97.30;;;;;;5123149;28;20031;-83
2021/11/28 08:49:55;;;;;;;23.97;18.63;;;6.80;97.20;;;;;;5120877;28;20475;-82
2021/11/28 08:52:21;;;;;;;24.70;19.93;;;6.90;97.30;;;;;;5101499;28;20051;-84
2021/11/28 08:54:47;;;;;;;26.30;20.57;;;6.80;97.00;;;;;;5118452;28;20469;-82
2021/11/28 08:57:12;;;;;;;26.80;19.70;;;6.90;97.10;;;;;;5099827;28;20460;-83
2021/11/28 08:59:39;;;;;;;29.77;21.00;;;6.90;97.00;;;;;;5117720;28;20024;-81
2021/11/28 09:02:05;;;;;;;29.33;20.70;;;7.00;96.90;;;;;;5115449;28;20032;-82
2021/11/28 09:04:30;;;;;;;27.73;20.67;;;7.00;96.80;;;;;;5116889;27;20032;-83
2021/11/28 09:06:56;;;;;;;28.03;22.17;;;7.00;96.30;;;;;;5118614;28;20467;-82
2021/11/28 09:09:22;;;;;;;30.97;23.03;;;7.00;96.60;;;;;;5103294;28;20031;-83
2021/11/28 09:11:47;;;;;;;32.43;23.13;;;7.00;96.50;;;;;;5099276;28;20425;-80
2021/11/28 09:14:13;;;;;;;33.93;24.47;;;7.10;96.30;;;;;;5115766;28;20047;-83
2021/11/28 09:16:39;;;;;;;37.70;25.00;;;7.10;96.00;;;;;;5099674;28;20499;-83
2021/11/28 09:19:08;;;;;;;36.03;25.47;;;7.20;96.00;;;;;;5082113;28;20031;-84
2021/11/28 09:21:33;;;;;;;36.13;26.33;;;7.30;95.90;;;;;;5116345;28;20035;-84
2021/11/28 09:24:59;;;;;;;39.40;28.17;;;7.30;95.70;;;;;;5118599;28;20111;-85
2021/11/28 09:26:54;;;;;;;39.20;29.63;;;7.40;95.80;;;;;;5104041;28;20119;-84
2021/11/28 09:29:20;;;;;;;40.60;29.07;;;7.50;95.70;;;;;;5117200;28;20058;-83
2021/11/28 09:31:47;;;;;;;39.37;27.90;;;7.50;95.60;;;;;;5117161;28;20044;-85
2021/11/28 09:34:12;;;;;;;39.87;27.90;;;7.60;95.10;;;;;;5100648;28;20494;-84
2021/11/28 09:36:38;;;;;;;44.57;32.50;;;7.60;94.50;;;;;;5116616;28;20031;-83
2021/11/28 09:39:06;;;;;;;43.90;31.33;;;7.60;94.80;;;;;;5117439;28;20320;-84
2021/11/28 09:41:37;;;;;;;47.47;32.50;;;7.70;95.00;;;;;;5118068;28;20094;-84
2021/11/28 09:44:16;;;;;;;43.47;31.67;;;7.80;94.60;;;;;;5118123;27;20034;-85
2021/11/28 09:46:44;;;;;;;52.47;34.53;;;7.80;94.50;;;;;;5120145;28;20019;-85
2021/11/28 09:49:09;;;;;;;47.83;33.43;;;8.00;94.60;;;;;;5104611;28;20023;-85
2021/11/28 09:51:35;;;;;;;42.17;30.33;;;8.10;94.30;;;;;;5100220;28;20421;-86
2021/11/28 09:54:06;;;;;;;45.30;32.63;;;8.30;94.10;;;;;;5101114;28;20038;-84
2021/11/28 09:56:37;;;;;;;48.03;32.07;;;8.60;92.90;;;;;;5119330;28;20031;-84
2021/11/28 09:59:05;;;;;;;41.97;31.10;;;8.70;92.30;;;;;;5117031;28;20028;-83
2021/11/28 10:01:35;;;;;;;42.60;30.77;;;8.70;91.50;;;;;;5116781;28;20490;-84
2021/11/28 10:04:01;;;;;;;41.03;29.90;;;8.60;91.80;;;;;;5118816;28;20050;-84
2021/11/28 10:06:28;;;;;;;38.80;29.27;;;8.60;91.40;;;;;;5118393;28;20032;-84
2021/11/28 10:08:55;;;;;;;38.30;29.30;;;8.50;91.70;;;;;;5118247;28;20032;-85
2021/11/28 10:11:39;;;;;;;40.43;29.73;;;8.40;91.50;;;;;;5118665;28;20027;-86
2021/11/28 10:14:08;;;;;;;42.17;28.90;;;8.40;91.80;;;;;;5119229;28;20031;-86
2021/11/28 10:16:34;;;;;;;40.93;29.03;;;8.30;91.70;;;;;;5121405;28;20073;-87
2021/11/28 10:19:00;;;;;;;43.87;28.13;;;8.20;91.60;;;;;;5121163;28;20024;-88
2021/11/28 10:21:32;;;;;;;40.93;28.23;;;8.20;92.20;;;;;;5119872;28;20074;-87
2021/11/28 10:24:14;;;;;;;44.47;28.60;;;8.20;92.30;;;;;;5120532;28;20028;-87
2021/11/28 10:26:57;;;;;;;39.17;26.03;;;8.10;92.50;;;;;;5120415;28;20019;-84
2021/11/28 10:29:26;;;;;;;;;;;8.10;91.70;;;;;;5119223;28;20143;-88
2021/11/28 10:31:54;;;;;;;40.30;26.80;;;8.00;92.20;;;;;;5118613;28;20018;-84
2021/11/28 10:34:29;;;;;;;36.67;25.73;;;8.00;92.00;;;;;;5122641;28;20024;-87
2021/11/28 10:37:06;;;;;;;34.60;24.73;;;7.80;91.70;;;;;;5128950;28;20019;-86
2021/11/28 10:39:48;;;;;;;41.87;27.33;;;7.80;91.70;;;;;;5132163;28;20030;-87
2021/11/28 10:42:20;;;;;;;38.85;25.90;;;7.80;91.90;;;;;;5133067;28;20028;-84
2021/11/28 10:45:13;;;;;;;39.47;26.43;;;7.70;91.30;;;;;;5126225;28;20468;-88
2021/11/28 10:47:52;;;;;;;41.58;26.88;;;7.60;91.70;;;;;;5118229;28;20048;-83
2021/11/28 10:50:33;;;;;;;40.10;26.70;;;7.50;91.90;;;;;;5116379;28;20034;-86
2021/11/28 10:53:15;;;;;;;34.33;23.83;;;7.50;92.00;;;;;;5116061;28;20452;-86
2021/11/28 10:55:43;;;;;;;41.58;25.60;;;7.50;91.20;;;;;;5126138;28;20073;-86
2021/11/28 10:58:12;;;;;;;41.30;26.83;;;7.40;91.20;;;;;;5124697;28;20027;-89
2021/11/28 11:01:05;;;;;;;40.57;27.60;;;7.30;91.40;;;;;;5125700;28;20031;-87
2021/11/28 11:03:33;;;;;;;42.17;27.02;;;7.40;92.20;;;;;;5125674;28;20015;-88
2021/11/28 11:06:28;;;;;;;43.87;27.10;;;7.60;92.90;;;;;;5125934;28;20098;-88
2021/11/28 11:09:24;;;;;;;45.40;28.13;;;7.80;92.30;;;;;;5102927;28;20121;-87
2021/11/28 11:11:51;;;;;;;43.80;29.33;;;8.00;91.80;;;;;;5117274;28;20039;-85
2021/11/28 11:14:18;;;;;;;42.20;27.20;;;8.30;92.10;;;;;;5108549;28;20120;-86
2021/11/28 11:16:45;;;;;;;33.20;23.80;;;8.40;91.10;;;;;;5126357;28;20039;-89
2021/11/28 11:19:30;;;;;;;33.10;23.87;;;8.40;90.20;;;;;;5126369;28;20051;-87
2021/11/28 11:22:12;;;;;;;32.70;22.03;;;8.40;90.00;;;;;;5127178;28;20110;-87
2021/11/28 11:24:42;;;;;;;28.33;20.47;;;8.30;88.80;;;;;;5126849;28;20509;-86
2021/11/28 11:27:14;;;;;;;27.57;20.13;;;8.30;88.40;;;;;;5129155;28;20027;-89
2021/11/28 11:29:49;;;;;;;28.85;19.88;;;8.60;87.90;;;;;;5129794;28;20027;-83
2021/11/28 11:32:39;;;;;;;28.03;20.80;;;8.90;86.30;;;;;;5136935;28;20093;-87
2021/11/28 11:35:09;;;;;;;26.70;19.30;;;9.20;84.00;;;;;;5138108;28;20031;-86
2021/11/28 11:37:37;;;;;;;25.97;19.77;;;9.50;82.50;;;;;;5139705;28;20028;-87
2021/11/28 11:40:09;;;;;;;27.27;19.90;;;9.60;80.80;;;;;;5139322;28;20042;-87
2021/11/28 11:42:36;;;;;;;25.60;19.25;;;9.50;79.70;;;;;;5106741;28;20019;-84
2021/11/28 11:45:03;;;;;;;26.67;19.90;;;9.40;80.40;;;;;;5139297;28;20039;-86
2021/11/28 11:47:29;;;;;;;29.63;19.90;;;9.50;80.20;;;;;;5121883;28;20068;-86
2021/11/28 11:49:55;;;;;;;27.60;20.07;;;9.50;79.80;;;;;;5137555;28;20047;-87
2021/11/28 11:52:22;;;;;;;29.10;21.13;;;9.50;80.60;;;;;;5114530;28;20043;-86
2021/11/28 11:55:00;;;;;;;28.10;20.13;;;9.50;80.60;;;;;;5116030;28;20008;-84
2021/11/28 11:57:32;;;;;;;26.17;19.20;;;9.60;80.40;;;;;;5132893;28;20019;-87
2021/11/28 12:00:26;;;;;;;26.33;19.02;;;9.50;79.90;;;;;;5134983;28;20049;-88
2021/11/28 12:02:53;;;;;;;27.07;19.73;;;9.50;79.80;;;;;;5133021;28;20036;-82
2021/11/28 12:05:25;;;;;;;26.77;18.97;;;9.40;79.30;;;;;;5132825;28;20060;-87
2021/11/28 12:07:53;;;;;;;27.83;19.87;;;9.30;79.90;;;;;;5129150;28;20023;-84
2021/11/28 12:10:31;;;;;;;26.93;18.87;;;9.40;81.10;;;;;;5122530;28;20119;-85
2021/11/28 12:12:59;;;;;;;25.87;19.13;;;9.50;80.10;;;;;;5105987;28;20027;-84
2021/11/28 12:15:35;;;;;;;26.93;19.23;;;9.40;79.60;;;;;;5125238;28;20047;-84
2021/11/28 12:18:02;;;;;;;26.93;19.03;;;9.40;79.80;;;;;;5123843;28;20027;-83
2021/11/28 12:20:43;;;;;;;25.33;18.37;;;9.20;79.60;;;;;;5122327;28;20031;-83
2021/11/28 12:23:10;;;;;;;26.40;17.73;;;9.10;80.20;;;;;;5122439;28;20372;-84
2021/11/28 12:25:37;;;;;;;26.40;18.73;;;9.00;80.00;;;;;;5104503;28;20068;-84
2021/11/28 12:28:30;;;;;;;26.63;18.77;;;8.90;80.30;;;;;;5103860;28;20024;-83
2021/11/28 12:30:57;;;;;;;;;;;8.90;80.50;;;;;;5112751;28;20054;-83
2021/11/28 12:33:54;;;;;;;28.17;18.83;;;8.80;80.00;;;;;;5122293;28;19911;-85
2021/11/28 12:36:33;;;;;;;28.17;19.07;;;8.80;81.00;;;;;;5121612;28;20081;-83
2021/11/28 12:39:07;;;;;;;27.30;19.13;;;8.70;81.00;;;;;;5121447;28;20119;-82
2021/11/28 12:44:22;;;;;;;27.83;19.03;;;8.60;80.50;;;;;;5125697;28;20115;-81
2021/11/28 12:46:59;;;;;;;29.57;19.90;;;8.50;81.00;;;;;;5124595;28;20038;-83
2021/11/28 12:49:31;;;;;;;28.67;20.50;;;8.60;81.30;;;;;;5124725;28;20006;-83
2021/11/28 12:52:25;;;;;;;31.10;20.57;;;8.60;81.60;;;;;;5123219;28;20034;-79